createdAt,value
2023-03-19T00:00:31.901Z,8.84
2023-03-19T00:03:06.724Z,8.87
2023-03-19T00:05:35.860Z,8.88
2023-03-19T00:08:04.798Z,8.90
2023-03-19T00:10:32.992Z,8.91
2023-03-19T00:13:00.623Z,8.91
2023-03-19T00:15:27.976Z,8.93
2023-03-19T00:17:56.725Z,8.93
2023-03-19T00:20:24.034Z,8.94
2023-03-19T00:22:51.403Z,8.94
2023-03-19T00:25:18.823Z,8.94
2023-03-19T00:27:46.449Z,8.93
2023-03-19T00:30:15.333Z,8.91
2023-03-19T00:32:43.172Z,8.92
2023-03-19T00:35:10.965Z,8.91
2023-03-19T00:37:40.632Z,8.89
2023-03-19T00:40:10.576Z,8.90
2023-03-19T00:42:37.864Z,8.89
2023-03-19T00:45:05.866Z,8.89
2023-03-19T00:47:33.798Z,8.89
2023-03-19T00:50:03.942Z,8.89
2023-03-19T00:52:31.652Z,8.89
2023-03-19T00:54:58.865Z,8.89
2023-03-19T00:57:26.219Z,8.88
2023-03-19T00:59:53.884Z,8.88
2023-03-19T01:02:21.500Z,8.89
2023-03-19T01:04:49.733Z,8.90
2023-03-19T01:07:17.424Z,8.90
2023-03-19T01:09:44.798Z,8.90
2023-03-19T01:12:12.386Z,8.90
2023-03-19T01:14:39.795Z,8.90
2023-03-19T01:17:07.388Z,8.90
2023-03-19T01:19:34.795Z,8.90
2023-03-19T01:22:04.756Z,8.90
2023-03-19T01:24:33.801Z,8.91
2023-03-19T01:27:01.771Z,8.90
2023-03-19T01:29:33.845Z,8.90
2023-03-19T01:32:10.997Z,8.90
2023-03-19T01:34:47.848Z,8.91
2023-03-19T01:37:17.421Z,8.90
2023-03-19T01:39:47.150Z,8.91
2023-03-19T01:42:15.977Z,8.91
2023-03-19T01:45:03.841Z,8.90
2023-03-19T01:47:33.405Z,8.90
2023-03-19T01:50:43.286Z,8.89
2023-03-19T01:53:44.099Z,8.87
2023-03-19T01:56:24.246Z,8.87
2023-03-19T01:59:25.646Z,8.88
2023-03-19T02:02:25.839Z,8.88
2023-03-19T02:05:00.789Z,8.88
2023-03-19T02:07:46.610Z,8.89
2023-03-19T02:10:17.086Z,8.90
2023-03-19T02:12:44.894Z,8.92
2023-03-19T02:15:12.975Z,8.91
2023-03-19T02:17:42.610Z,8.93
2023-03-19T02:20:28.710Z,8.94
2023-03-19T02:23:11.061Z,8.94
2023-03-19T02:26:04.063Z,8.96
2023-03-19T02:28:33.556Z,8.97
2023-03-19T02:31:03.705Z,9.00
2023-03-19T02:33:31.689Z,9.01
2023-03-19T02:35:59.250Z,9.02
2023-03-19T02:38:30.555Z,9.04
2023-03-19T02:41:06.001Z,9.03
2023-03-19T02:43:35.090Z,9.04
2023-03-19T02:46:07.006Z,9.04
2023-03-19T02:48:35.146Z,9.05
2023-03-19T02:51:05.693Z,9.05
2023-03-19T02:53:34.961Z,9.05
2023-03-19T02:56:05.475Z,9.05
2023-03-19T02:58:33.143Z,9.05
2023-03-19T03:01:03.720Z,9.03
2023-03-19T03:03:32.637Z,9.03
2023-03-19T03:05:59.989Z,9.04
2023-03-19T03:08:28.738Z,9.04
2023-03-19T03:10:57.195Z,9.03
2023-03-19T03:13:25.330Z,9.04
2023-03-19T03:15:53.625Z,9.04
2023-03-19T03:18:21.156Z,9.03
2023-03-19T03:20:49.033Z,9.02
2023-03-19T03:23:18.003Z,9.01
2023-03-19T03:25:48.564Z,9.01
2023-03-19T03:28:17.872Z,9.01
2023-03-19T03:30:47.052Z,9.00
2023-03-19T03:33:14.518Z,9.01
2023-03-19T03:35:41.775Z,9.01
2023-03-19T03:38:10.347Z,9.01
2023-03-19T03:40:37.686Z,9.01
2023-03-19T03:43:05.230Z,9.01
2023-03-19T03:45:35.312Z,9.00
2023-03-19T03:48:04.644Z,9.01
2023-03-19T03:50:32.060Z,9.01
2023-03-19T03:53:04.865Z,9.02
2023-03-19T03:55:32.408Z,9.02
2023-03-19T03:57:59.880Z,9.02
2023-03-19T04:00:27.910Z,9.03
2023-03-19T04:02:59.341Z,9.02
2023-03-19T04:05:26.708Z,9.03
2023-03-19T04:08:05.424Z,9.01
2023-03-19T04:10:33.540Z,9.00
2023-03-19T04:13:03.557Z,8.98
2023-03-19T04:15:33.423Z,8.96
2023-03-19T04:18:03.889Z,8.95
2023-03-19T04:20:33.204Z,8.94
2023-03-19T04:23:03.047Z,8.92
2023-03-19T04:25:31.095Z,8.91
2023-03-19T04:27:59.202Z,8.89
2023-03-19T04:30:30.149Z,8.87
2023-03-19T04:32:57.551Z,8.85
2023-03-19T04:35:25.798Z,8.84
2023-03-19T04:37:53.372Z,8.85
2023-03-19T04:40:22.091Z,8.84
2023-03-19T04:42:50.329Z,8.85
2023-03-19T04:45:36.752Z,8.86
2023-03-19T04:48:04.336Z,8.86
2023-03-19T04:50:35.085Z,8.87
2023-03-19T04:53:04.608Z,8.86
2023-03-19T04:55:32.528Z,8.89
2023-03-19T04:58:09.922Z,8.90
2023-03-19T05:00:38.305Z,8.92
2023-03-19T05:03:07.242Z,8.93
2023-03-19T05:05:35.896Z,8.92
2023-03-19T05:08:08.792Z,8.93
2023-03-19T05:10:38.019Z,8.94
2023-03-19T05:13:06.265Z,8.95
2023-03-19T05:15:37.440Z,8.95
2023-03-19T05:18:08.726Z,8.96
2023-03-19T05:20:42.791Z,8.96
2023-03-19T05:23:18.144Z,8.98
2023-03-19T05:26:01.373Z,8.98
2023-03-19T05:28:48.449Z,9.00
2023-03-19T05:31:19.632Z,9.00
2023-03-19T05:33:51.550Z,9.01
2023-03-19T05:36:19.548Z,9.01
2023-03-19T05:38:58.907Z,9.02
2023-03-19T05:41:32.952Z,9.02
2023-03-19T05:44:05.025Z,9.02
2023-03-19T05:46:43.802Z,9.02
2023-03-19T05:49:17.927Z,9.00
2023-03-19T05:51:45.582Z,8.95
2023-03-19T05:54:14.129Z,8.93
2023-03-19T05:56:50.090Z,8.87
2023-03-19T05:59:43.476Z,8.83
2023-03-19T06:02:37.927Z,8.75
2023-03-19T06:05:31.977Z,8.69
2023-03-19T06:08:07.187Z,8.65
2023-03-19T06:10:53.058Z,8.60
2023-03-19T06:13:20.649Z,8.56
2023-03-19T06:15:54.112Z,8.55
2023-03-19T06:18:26.310Z,8.52
2023-03-19T06:20:53.793Z,8.51
2023-03-19T06:23:21.584Z,8.51
2023-03-19T06:25:49.650Z,8.53
2023-03-19T06:28:18.465Z,8.55
2023-03-19T06:30:46.785Z,8.55
2023-03-19T06:33:43.795Z,8.58
2023-03-19T06:36:11.509Z,8.61
2023-03-19T06:38:39.595Z,8.62
2023-03-19T06:41:07.425Z,8.61
2023-03-19T06:43:37.347Z,8.61
2023-03-19T06:46:05.472Z,8.61
2023-03-19T06:48:34.327Z,8.61
2023-03-19T06:51:02.189Z,8.65
2023-03-19T06:53:32.190Z,8.75
2023-03-19T06:55:59.436Z,8.84
2023-03-19T06:58:36.408Z,8.96
2023-03-19T07:01:04.473Z,9.09
2023-03-19T07:03:31.865Z,9.26
2023-03-19T07:06:11.870Z,9.46
2023-03-19T07:08:39.233Z,9.67
2023-03-19T07:11:10.963Z,9.94
2023-03-19T07:13:38.369Z,10.30
2023-03-19T07:16:06.621Z,10.68
2023-03-19T07:18:34.389Z,11.08
2023-03-19T07:21:02.069Z,11.42
2023-03-19T07:23:32.306Z,11.73
2023-03-19T07:25:59.696Z,12.08
2023-03-19T07:28:27.098Z,12.45
2023-03-19T07:30:54.676Z,12.74
2023-03-19T07:33:29.030Z,12.90
2023-03-19T07:35:59.481Z,12.98
2023-03-19T07:38:27.178Z,12.98
2023-03-19T07:41:01.913Z,13.00
2023-03-19T07:43:31.506Z,13.02
2023-03-19T07:46:00.909Z,12.98
2023-03-19T07:48:32.925Z,12.98
2023-03-19T07:51:00.527Z,13.00
2023-03-19T07:53:27.814Z,13.07
2023-03-19T07:55:55.522Z,13.19
2023-03-19T07:58:22.872Z,13.06
2023-03-19T08:00:50.674Z,12.85
2023-03-19T08:03:17.943Z,12.62
2023-03-19T08:05:45.333Z,12.44
2023-03-19T08:08:13.085Z,12.37
2023-03-19T08:10:40.947Z,12.55
2023-03-19T08:13:08.436Z,12.80
2023-03-19T08:15:35.991Z,12.99
2023-03-19T08:18:08.854Z,13.20
2023-03-19T08:20:36.482Z,13.49
2023-03-19T08:23:04.471Z,13.63
2023-03-19T08:25:32.764Z,13.61
2023-03-19T08:28:01.269Z,13.53
2023-03-19T08:30:31.969Z,13.31
2023-03-19T08:33:00.186Z,13.05
2023-03-19T08:35:27.720Z,13.05
2023-03-19T08:37:56.749Z,13.04
2023-03-19T08:40:24.389Z,12.98
2023-03-19T08:42:52.004Z,12.96
2023-03-19T08:45:20.049Z,13.02
2023-03-19T08:47:49.013Z,13.07
2023-03-19T08:50:17.549Z,13.06
2023-03-19T08:52:44.932Z,13.01
2023-03-19T08:55:12.619Z,13.10
2023-03-19T08:57:40.108Z,13.15
2023-03-19T09:00:09.296Z,13.24
2023-03-19T09:02:36.630Z,13.24
2023-03-19T09:05:04.315Z,13.21
2023-03-19T09:07:31.654Z,13.16
2023-03-19T09:09:59.074Z,13.18
2023-03-19T09:12:26.585Z,13.38
2023-03-19T09:14:53.851Z,13.58
2023-03-19T09:17:21.157Z,13.70
2023-03-19T09:19:48.429Z,13.77
2023-03-19T09:22:15.711Z,13.74
2023-03-19T09:24:43.052Z,13.57
2023-03-19T09:27:10.443Z,13.25
2023-03-19T09:29:37.718Z,12.99
2023-03-19T09:32:06.200Z,12.80
2023-03-19T09:34:33.780Z,12.56
2023-03-19T09:37:01.513Z,12.47
2023-03-19T09:39:32.656Z,12.35
2023-03-19T09:42:18.618Z,12.31
2023-03-19T09:44:46.593Z,12.27
2023-03-19T09:47:26.404Z,12.27
2023-03-19T09:49:58.365Z,12.40
2023-03-19T09:52:58.736Z,12.54
2023-03-19T09:55:45.711Z,12.64
2023-03-19T09:58:17.246Z,12.81
2023-03-19T10:00:49.100Z,12.99
2023-03-19T10:03:35.415Z,13.14
2023-03-19T10:06:08.846Z,13.30
2023-03-19T10:08:45.763Z,13.49
2023-03-19T10:11:49.180Z,13.58
2023-03-19T10:15:04.442Z,13.59
2023-03-19T10:17:41.246Z,13.52
2023-03-19T10:20:22.654Z,13.40
2023-03-19T10:23:00.664Z,13.28
2023-03-19T10:25:41.779Z,13.22
2023-03-19T10:28:20.591Z,13.16
2023-03-19T10:31:17.739Z,13.00
2023-03-19T10:33:57.056Z,12.86
2023-03-19T10:36:31.006Z,12.82
2023-03-19T10:38:58.408Z,12.81
2023-03-19T10:41:51.296Z,12.80
2023-03-19T10:44:47.530Z,12.79
2023-03-19T10:47:16.986Z,12.86
2023-03-19T10:49:44.390Z,12.89
2023-03-19T10:52:32.662Z,12.96
2023-03-19T10:55:18.957Z,13.08
2023-03-19T10:57:50.627Z,13.14
2023-03-19T11:00:23.626Z,13.16
2023-03-19T11:02:54.198Z,13.19
2023-03-19T11:05:22.264Z,13.30
2023-03-19T11:07:51.698Z,13.36
2023-03-19T11:10:20.503Z,13.44
2023-03-19T11:12:55.078Z,13.52
2023-03-19T11:15:33.271Z,13.57
2023-03-19T11:18:07.186Z,13.55
2023-03-19T11:20:37.674Z,13.52
2023-03-19T11:23:16.982Z,13.53
2023-03-19T11:25:53.213Z,13.50
2023-03-19T11:28:26.296Z,13.45
2023-03-19T11:31:15.607Z,13.43
2023-03-19T11:34:14.406Z,13.36
2023-03-19T11:37:05.252Z,13.31
2023-03-19T11:39:51.534Z,13.29
2023-03-19T11:42:36.749Z,13.35
2023-03-19T11:45:20.824Z,13.56
2023-03-19T11:47:57.243Z,13.72
2023-03-19T11:50:43.910Z,13.78
2023-03-19T11:53:14.253Z,13.79
2023-03-19T11:56:05.559Z,13.83
2023-03-19T11:58:47.953Z,13.85
2023-03-19T12:01:45.896Z,13.91
2023-03-19T12:04:31.838Z,13.98
2023-03-19T12:07:13.456Z,14.02
2023-03-19T12:10:08.246Z,13.99
2023-03-19T12:13:27.081Z,13.89
2023-03-19T12:16:15.968Z,13.88
2023-03-19T12:19:18.611Z,13.83
2023-03-19T12:21:54.800Z,13.96
2023-03-19T12:24:44.168Z,14.12
2023-03-19T12:27:30.539Z,14.23
2023-03-19T12:30:13.355Z,14.31
2023-03-19T12:33:10.137Z,14.33
2023-03-19T12:35:40.831Z,14.35
2023-03-19T12:38:17.482Z,14.34
2023-03-19T12:40:50.721Z,14.39
2023-03-19T12:43:51.917Z,14.38
2023-03-19T12:46:43.165Z,14.35
2023-03-19T12:49:23.249Z,14.32
2023-03-19T12:51:57.278Z,14.31
2023-03-19T12:54:28.663Z,14.30
2023-03-19T12:57:05.445Z,14.42
2023-03-19T13:00:03.566Z,14.43
2023-03-19T13:02:42.294Z,14.48
2023-03-19T13:05:23.164Z,14.47
2023-03-19T13:08:00.567Z,14.42
2023-03-19T13:10:30.822Z,14.33
2023-03-19T13:13:00.539Z,14.15
2023-03-19T13:15:27.702Z,14.10
2023-03-19T13:18:16.889Z,14.09
2023-03-19T13:20:55.758Z,13.94
2023-03-19T13:23:30.123Z,13.86
2023-03-19T13:25:59.222Z,13.77
2023-03-19T13:28:55.929Z,13.70
2023-03-19T13:31:30.685Z,13.62
2023-03-19T13:34:16.781Z,13.63
2023-03-19T13:36:53.051Z,13.64
2023-03-19T13:39:25.217Z,13.58
2023-03-19T13:41:54.893Z,13.45
2023-03-19T13:44:22.119Z,13.35
2023-03-19T13:46:49.994Z,13.20
2023-03-19T13:49:36.775Z,13.15
2023-03-19T13:52:26.895Z,13.10
2023-03-19T13:54:57.928Z,13.02
2023-03-19T13:57:36.021Z,12.90
2023-03-19T14:00:41.383Z,12.82
2023-03-19T14:03:26.692Z,12.80
2023-03-19T14:05:56.601Z,12.72
2023-03-19T14:08:32.725Z,12.59
2023-03-19T14:11:06.892Z,12.43
2023-03-19T14:13:49.280Z,12.32
2023-03-19T14:16:26.440Z,12.30
2023-03-19T14:19:00.439Z,12.29
2023-03-19T14:21:59.519Z,12.26
2023-03-19T14:24:56.320Z,12.22
2023-03-19T14:27:33.338Z,12.12
2023-03-19T14:30:19.132Z,12.01
2023-03-19T14:32:49.179Z,11.90
2023-03-19T14:35:20.688Z,11.87
2023-03-19T14:37:50.856Z,11.84
2023-03-19T14:40:23.054Z,11.81
2023-03-19T14:43:04.142Z,11.82
2023-03-19T14:45:48.445Z,11.82
2023-03-19T14:48:43.114Z,11.81
2023-03-19T14:51:28.830Z,11.73
2023-03-19T14:54:06.803Z,11.60
2023-03-19T14:56:35.889Z,11.51
2023-03-19T14:59:06.488Z,11.44
2023-03-19T15:01:43.733Z,11.40
2023-03-19T15:04:14.441Z,11.36
2023-03-19T15:06:46.750Z,11.29
2023-03-19T15:09:22.507Z,11.17
2023-03-19T15:12:08.416Z,11.05
2023-03-19T15:14:54.220Z,10.99
2023-03-19T15:17:27.777Z,10.90
2023-03-19T15:19:58.554Z,10.87
2023-03-19T15:22:33.311Z,10.75
2023-03-19T15:25:14.890Z,10.66
2023-03-19T15:27:43.492Z,10.62
2023-03-19T15:30:32.614Z,10.53
2023-03-19T15:33:16.438Z,10.48
2023-03-19T15:35:48.701Z,10.39
2023-03-19T15:38:18.157Z,10.38
2023-03-19T15:40:45.715Z,10.37
2023-03-19T15:43:13.717Z,10.36
2023-03-19T15:45:46.484Z,10.35
2023-03-19T15:48:28.467Z,10.34
2023-03-19T15:51:00.699Z,10.34
2023-03-19T15:53:32.222Z,10.38
2023-03-19T15:56:02.985Z,10.42
2023-03-19T15:58:31.741Z,10.39
2023-03-19T16:01:01.735Z,10.40
2023-03-19T16:03:52.439Z,10.44
2023-03-19T16:06:19.938Z,10.45
2023-03-19T16:09:07.587Z,10.46
2023-03-19T16:11:41.360Z,10.44
2023-03-19T16:14:14.830Z,10.43
2023-03-19T16:16:42.386Z,10.38
2023-03-19T16:19:32.950Z,10.36
2023-03-19T16:22:01.594Z,10.31
2023-03-19T16:24:36.269Z,10.30
2023-03-19T16:27:07.052Z,10.32
2023-03-19T16:29:58.640Z,10.28
2023-03-19T16:32:31.537Z,10.26
2023-03-19T16:35:19.785Z,10.22
2023-03-19T16:37:49.048Z,10.19
2023-03-19T16:40:24.529Z,10.13
2023-03-19T16:42:54.245Z,10.13
2023-03-19T16:45:32.197Z,10.11
2023-03-19T16:48:03.704Z,10.09
2023-03-19T16:50:40.047Z,10.09
2023-03-19T16:53:29.552Z,10.08
2023-03-19T16:55:58.553Z,10.10
2023-03-19T16:58:35.062Z,10.09
2023-03-19T17:01:04.758Z,10.06
2023-03-19T17:03:32.061Z,10.04
2023-03-19T17:05:59.413Z,10.04
2023-03-19T17:08:27.582Z,10.04
2023-03-19T17:10:56.307Z,10.02
2023-03-19T17:13:30.574Z,10.03
2023-03-19T17:16:01.837Z,10.00
2023-03-19T17:18:33.268Z,10.01
2023-03-19T17:21:07.078Z,10.00
2023-03-19T17:23:34.884Z,9.99
2023-03-19T17:26:09.291Z,9.99
2023-03-19T17:28:37.522Z,9.98
2023-03-19T17:31:05.106Z,9.98
2023-03-19T17:33:32.363Z,9.99
2023-03-19T17:35:59.921Z,9.99
2023-03-19T17:38:32.830Z,9.97
2023-03-19T17:41:00.417Z,9.91
2023-03-19T17:43:27.672Z,9.87
2023-03-19T17:45:55.562Z,9.85
2023-03-19T17:48:25.989Z,9.79
2023-03-19T17:50:55.915Z,9.79
2023-03-19T17:53:23.144Z,9.76
2023-03-19T17:55:50.458Z,9.75
2023-03-19T17:58:20.091Z,9.74
2023-03-19T18:00:49.528Z,9.72
2023-03-19T18:03:19.311Z,9.70
2023-03-19T18:05:47.159Z,9.65
2023-03-19T18:08:20.903Z,9.61
2023-03-19T18:10:48.233Z,9.57
2023-03-19T18:13:16.040Z,9.52
2023-03-19T18:15:45.153Z,9.49
2023-03-19T18:18:19.065Z,9.45
2023-03-19T18:20:47.569Z,9.42
2023-03-19T18:23:18.078Z,9.36
2023-03-19T18:25:46.313Z,9.35
2023-03-19T18:28:13.750Z,9.32
2023-03-19T18:30:43.445Z,9.32
2023-03-19T18:33:22.293Z,9.28
2023-03-19T18:35:49.765Z,9.26
2023-03-19T18:38:20.337Z,9.25
2023-03-19T18:40:48.918Z,9.23
2023-03-19T18:43:18.148Z,9.20
2023-03-19T18:45:49.319Z,9.19
2023-03-19T18:48:20.863Z,9.17
2023-03-19T18:50:48.505Z,9.13
2023-03-19T18:53:16.520Z,9.10
2023-03-19T18:55:44.647Z,9.06
2023-03-19T18:58:21.561Z,9.03
2023-03-19T19:00:49.954Z,9.04
2023-03-19T19:03:19.918Z,9.06
2023-03-19T19:05:47.518Z,9.06
2023-03-19T19:08:17.657Z,9.06
2023-03-19T19:10:54.245Z,9.04
2023-03-19T19:13:25.937Z,9.03
2023-03-19T19:15:53.474Z,8.98
2023-03-19T19:18:24.232Z,8.93
2023-03-19T19:20:52.436Z,8.89
2023-03-19T19:23:21.173Z,8.85
2023-03-19T19:25:52.063Z,8.79
2023-03-19T19:28:41.195Z,8.78
2023-03-19T19:31:24.667Z,8.77
2023-03-19T19:33:52.781Z,8.75
2023-03-19T19:36:21.320Z,8.74
2023-03-19T19:38:48.794Z,8.70
2023-03-19T19:41:18.495Z,8.68
2023-03-19T19:43:47.496Z,8.68
2023-03-19T19:46:16.598Z,8.65
2023-03-19T19:48:44.896Z,8.63
2023-03-19T19:51:21.895Z,8.57
2023-03-19T19:53:49.693Z,8.54
2023-03-19T19:56:26.777Z,8.52
2023-03-19T19:58:55.872Z,8.51
2023-03-19T20:01:25.266Z,8.49
2023-03-19T20:03:53.365Z,8.44
2023-03-19T20:06:20.953Z,8.38
2023-03-19T20:08:51.207Z,8.36
2023-03-19T20:11:21.812Z,8.34
2023-03-19T20:13:54.181Z,8.29
2023-03-19T20:16:24.376Z,8.27
2023-03-19T20:18:55.187Z,8.25
2023-03-19T20:21:22.871Z,8.24
2023-03-19T20:23:53.083Z,8.21
2023-03-19T20:26:23.576Z,8.17
2023-03-19T20:28:51.554Z,8.13
2023-03-19T20:31:30.126Z,8.11
2023-03-19T20:33:57.730Z,8.06
2023-03-19T20:36:26.805Z,8.06
2023-03-19T20:38:54.594Z,8.02
2023-03-19T20:41:24.447Z,8.01
2023-03-19T20:43:52.366Z,7.96
2023-03-19T20:46:21.032Z,7.91
2023-03-19T20:48:49.290Z,7.90
2023-03-19T20:51:24.945Z,7.88
2023-03-19T20:53:53.058Z,7.88
2023-03-19T20:56:24.784Z,7.88
2023-03-19T20:58:52.650Z,7.84
2023-03-19T21:01:20.080Z,7.78
2023-03-19T21:03:47.574Z,7.72
2023-03-19T21:06:20.680Z,7.68
2023-03-19T21:08:50.946Z,7.66
2023-03-19T21:11:21.981Z,7.61
2023-03-19T21:13:52.823Z,7.53
2023-03-19T21:16:25.763Z,7.50
2023-03-19T21:18:54.527Z,7.49
2023-03-19T21:21:32.597Z,7.45
2023-03-19T21:24:13.111Z,7.40
2023-03-19T21:26:41.803Z,7.37
2023-03-19T21:29:18.420Z,7.37
2023-03-19T21:31:46.040Z,7.35
2023-03-19T21:34:14.575Z,7.34
2023-03-19T21:36:41.875Z,7.32
2023-03-19T21:39:09.110Z,7.32
2023-03-19T21:41:37.331Z,7.30
2023-03-19T21:44:15.595Z,7.27
2023-03-19T21:46:46.682Z,7.20
2023-03-19T21:49:14.625Z,7.19
2023-03-19T21:51:44.725Z,7.20
2023-03-19T21:54:12.091Z,7.20
2023-03-19T21:56:44.975Z,7.20
2023-03-19T21:59:22.852Z,7.19
2023-03-19T22:01:50.195Z,7.19
2023-03-19T22:04:19.339Z,7.17
2023-03-19T22:06:46.862Z,7.15
2023-03-19T22:09:14.108Z,7.11
2023-03-19T22:11:46.042Z,7.07
2023-03-19T22:14:24.752Z,7.07
2023-03-19T22:16:54.848Z,7.10
2023-03-19T22:19:22.411Z,7.08
2023-03-19T22:21:56.311Z,7.07
2023-03-19T22:24:23.548Z,7.05
2023-03-19T22:26:56.907Z,7.01
2023-03-19T22:29:25.865Z,7.00
2023-03-19T22:31:54.706Z,6.99
2023-03-19T22:34:24.825Z,7.00
2023-03-19T22:36:52.088Z,6.99
2023-03-19T22:39:19.415Z,6.97
2023-03-19T22:41:48.872Z,6.97
2023-03-19T22:44:29.778Z,6.97
2023-03-19T22:46:58.598Z,6.97
2023-03-19T22:49:26.540Z,6.98
2023-03-19T22:51:53.940Z,6.98
2023-03-19T22:54:21.197Z,6.99
2023-03-19T22:56:48.541Z,6.99
2023-03-19T22:59:16.276Z,6.99
2023-03-19T23:01:46.291Z,7.01
2023-03-19T23:04:25.465Z,7.00
2023-03-19T23:06:54.785Z,7.01
2023-03-19T23:09:33.523Z,6.98
2023-03-19T23:12:02.752Z,6.92
2023-03-19T23:14:31.508Z,6.90
2023-03-19T23:17:10.142Z,6.87
2023-03-19T23:19:38.559Z,6.86
2023-03-19T23:22:08.098Z,6.85
2023-03-19T23:24:35.463Z,6.83
2023-03-19T23:27:04.392Z,6.82
2023-03-19T23:29:35.177Z,6.82
2023-03-19T23:32:04.424Z,6.83
2023-03-19T23:34:35.279Z,6.81
2023-03-19T23:37:04.701Z,6.79
2023-03-19T23:39:32.118Z,6.75
2023-03-19T23:42:00.367Z,6.75
2023-03-19T23:44:29.495Z,6.75
2023-03-19T23:47:03.503Z,6.77
2023-03-19T23:49:33.428Z,6.78
2023-03-19T23:52:01.985Z,6.78
2023-03-19T23:54:39.563Z,6.77
2023-03-19T23:57:12.926Z,6.78
2023-03-19T23:59:42.791Z,6.78
